Portada
METAR-TAF:

METAR-TAF

Aeropuertos :

Hillsdale Municipal Airport

Hillsdale, Míchigan, Estados Unidos

latitud: 41-55-17N, longitud: 084-35-09W, altitud: 360 m

Observación

El informe se hizo hace 34 minutos, a las 19:15 UTC
Viento 3 kt del sur-suroeste
Temperatura 29°C
Humedad 48%
Presión 1025 hPa
Visibilidad: 16.1 km
Cielo despejado

METAR: KJYM 191915Z AUTO 20003KT 10SM CLR 29/17 A3027 RMK AO2 T02860167

Hora: 15:49 (19:49 UTC)


TAF: falta

Observaciones y pronósticos meteorológicos de más de 4000 aeropuertos (mensajes METAR y TAF).

Los puntos amarillos y rojos representan las estaciones disponibles.

Ponga el ratón en el punto deseado para ver el nombre de la estación.

Haga clic para ver las observaciones y los pronósticos meteorológicos.

Para cambiar el mapa : haga clic en los botones verdes con una cruz de color negro para hacer un zoom, en el botón verde con un guión para alejar o en las flechas verdes para mapas adyacentes.


METAR-TAF: